sensor_id;sensor_type;location;lat;lon;timestamp;P1;durP1;ratioP1;P2;durP2;ratioP2
45792;SDS011;31495;42.740;22.908;2022-08-19T00:00:08;8.38;;;4.20;;
45792;SDS011;31495;42.740;22.908;2022-08-19T00:01:10;5.25;;;4.15;;
45792;SDS011;31495;42.740;22.908;2022-08-19T00:02:10;7.43;;;4.93;;
45792;SDS011;31495;42.740;22.908;2022-08-19T00:03:10;4.97;;;4.22;;
45792;SDS011;31495;42.740;22.908;2022-08-19T00:04:10;6.47;;;4.30;;
45792;SDS011;31495;42.740;22.908;2022-08-19T00:05:12;5.22;;;4.05;;
45792;SDS011;31495;42.740;22.908;2022-08-19T00:06:14;5.95;;;4.28;;
45792;SDS011;31495;42.740;22.908;2022-08-19T00:07:14;5.57;;;4.05;;
45792;SDS011;31495;42.740;22.908;2022-08-19T00:08:14;6.68;;;4.38;;
45792;SDS011;31495;42.740;22.908;2022-08-19T00:09:14;5.80;;;4.50;;
45792;SDS011;31495;42.740;22.908;2022-08-19T00:10:17;6.85;;;4.60;;
45792;SDS011;31495;42.740;22.908;2022-08-19T00:11:18;5.18;;;4.20;;
45792;SDS011;31495;42.740;22.908;2022-08-19T00:12:18;6.40;;;4.75;;
45792;SDS011;31495;42.740;22.908;2022-08-19T00:13:18;6.90;;;4.43;;
45792;SDS011;31495;42.740;22.908;2022-08-19T00:14:18;4.57;;;4.00;;
45792;SDS011;31495;42.740;22.908;2022-08-19T00:15:20;5.57;;;4.30;;
45792;SDS011;31495;42.740;22.908;2022-08-19T00:16:21;6.13;;;4.50;;
45792;SDS011;31495;42.740;22.908;2022-08-19T00:17:20;5.63;;;4.10;;
45792;SDS011;31495;42.740;22.908;2022-08-19T00:18:20;5.53;;;4.40;;
45792;SDS011;31495;42.740;22.908;2022-08-19T00:19:20;9.27;;;4.85;;
45792;SDS011;31495;42.740;22.908;2022-08-19T00:20:20;6.35;;;4.40;;
45792;SDS011;31495;42.740;22.908;2022-08-19T00:21:21;8.02;;;4.82;;
45792;SDS011;31495;42.740;22.908;2022-08-19T00:22:22;7.15;;;4.55;;
45792;SDS011;31495;42.740;22.908;2022-08-19T00:23:21;9.55;;;4.70;;
45792;SDS011;31495;42.740;22.908;2022-08-19T00:24:20;5.75;;;4.55;;
45792;SDS011;31495;42.740;22.908;2022-08-19T00:25:20;7.13;;;4.70;;
45792;SDS011;31495;42.740;22.908;2022-08-19T00:26:19;5.57;;;4.18;;
45792;SDS011;31495;42.740;22.908;2022-08-19T00:27:19;7.20;;;5.03;;
45792;SDS011;31495;42.740;22.908;2022-08-19T00:28:19;4.63;;;4.10;;
45792;SDS011;31495;42.740;22.908;2022-08-19T00:29:20;4.85;;;3.80;;
45792;SDS011;31495;42.740;22.908;2022-08-19T00:30:20;6.15;;;4.20;;
45792;SDS011;31495;42.740;22.908;2022-08-19T00:31:20;5.22;;;4.43;;
45792;SDS011;31495;42.740;22.908;2022-08-19T00:32:20;6.95;;;4.00;;
45792;SDS011;31495;42.740;22.908;2022-08-19T00:33:20;5.43;;;4.30;;
45792;SDS011;31495;42.740;22.908;2022-08-19T00:34:20;6.63;;;4.20;;
45792;SDS011;31495;42.740;22.908;2022-08-19T00:35:21;4.38;;;3.95;;
45792;SDS011;31495;42.740;22.908;2022-08-19T00:36:20;6.32;;;4.40;;
45792;SDS011;31495;42.740;22.908;2022-08-19T00:37:21;5.68;;;4.60;;
45792;SDS011;31495;42.740;22.908;2022-08-19T00:38:22;6.60;;;4.43;;
45792;SDS011;31495;42.740;22.908;2022-08-19T00:39:22;6.22;;;4.40;;
45792;SDS011;31495;42.740;22.908;2022-08-19T00:40:22;5.15;;;4.60;;
45792;SDS011;31495;42.740;22.908;2022-08-19T00:41:23;5.55;;;4.35;;
45792;SDS011;31495;42.740;22.908;2022-08-19T00:42:23;7.38;;;4.45;;
45792;SDS011;31495;42.740;22.908;2022-08-19T00:43:27;6.35;;;4.60;;
45792;SDS011;31495;42.740;22.908;2022-08-19T00:44:28;4.90;;;3.95;;
45792;SDS011;31495;42.740;22.908;2022-08-19T00:45:29;4.53;;;3.95;;
45792;SDS011;31495;42.740;22.908;2022-08-19T00:46:32;5.45;;;4.72;;
45792;SDS011;31495;42.740;22.908;2022-08-19T00:47:35;6.35;;;4.20;;
45792;SDS011;31495;42.740;22.908;2022-08-19T00:48:35;6.65;;;4.63;;
45792;SDS011;31495;42.740;22.908;2022-08-19T00:49:36;7.25;;;4.40;;
45792;SDS011;31495;42.740;22.908;2022-08-19T00:50:40;5.30;;;4.40;;
45792;SDS011;31495;42.740;22.908;2022-08-19T00:51:42;5.72;;;4.28;;
45792;SDS011;31495;42.740;22.908;2022-08-19T00:52:47;7.03;;;4.18;;
45792;SDS011;31495;42.740;22.908;2022-08-19T00:53:49;5.95;;;4.63;;
45792;SDS011;31495;42.740;22.908;2022-08-19T00:54:48;6.43;;;5.28;;
45792;SDS011;31495;42.740;22.908;2022-08-19T00:55:49;7.47;;;4.55;;
45792;SDS011;31495;42.740;22.908;2022-08-19T00:56:52;5.82;;;4.57;;
45792;SDS011;31495;42.740;22.908;2022-08-19T00:57:54;7.10;;;4.90;;
45792;SDS011;31495;42.740;22.908;2022-08-19T00:58:57;5.88;;;4.60;;
45792;SDS011;31495;42.740;22.908;2022-08-19T00:59:58;6.13;;;4.78;;
45792;SDS011;31495;42.740;22.908;2022-08-19T01:00:59;7.65;;;4.28;;
45792;SDS011;31495;42.740;22.908;2022-08-19T01:02:00;5.57;;;4.30;;
45792;SDS011;31495;42.740;22.908;2022-08-19T01:02:59;6.53;;;3.95;;
45792;SDS011;31495;42.740;22.908;2022-08-19T01:03:59;6.25;;;4.43;;
45792;SDS011;31495;42.740;22.908;2022-08-19T01:04:59;8.27;;;4.63;;
45792;SDS011;31495;42.740;22.908;2022-08-19T01:06:01;5.68;;;4.03;;
45792;SDS011;31495;42.740;22.908;2022-08-19T01:07:01;5.80;;;4.82;;
45792;SDS011;31495;42.740;22.908;2022-08-19T01:08:02;5.22;;;4.03;;
45792;SDS011;31495;42.740;22.908;2022-08-19T01:09:04;6.25;;;4.50;;
45792;SDS011;31495;42.740;22.908;2022-08-19T01:10:05;7.20;;;4.80;;
45792;SDS011;31495;42.740;22.908;2022-08-19T01:11:07;4.93;;;3.90;;
45792;SDS011;31495;42.740;22.908;2022-08-19T01:12:07;6.88;;;4.20;;
45792;SDS011;31495;42.740;22.908;2022-08-19T01:13:07;5.25;;;4.35;;
45792;SDS011;31495;42.740;22.908;2022-08-19T01:14:08;5.00;;;4.28;;
45792;SDS011;31495;42.740;22.908;2022-08-19T01:15:10;6.28;;;4.18;;
45792;SDS011;31495;42.740;22.908;2022-08-19T01:16:11;5.72;;;4.40;;
45792;SDS011;31495;42.740;22.908;2022-08-19T01:17:12;6.15;;;4.30;;
45792;SDS011;31495;42.740;22.908;2022-08-19T01:18:13;4.70;;;3.50;;
45792;SDS011;31495;42.740;22.908;2022-08-19T01:19:17;8.63;;;4.38;;
45792;SDS011;31495;42.740;22.908;2022-08-19T01:20:24;5.22;;;4.70;;
45792;SDS011;31495;42.740;22.908;2022-08-19T01:22:37;6.30;;;4.53;;
45792;SDS011;31495;42.740;22.908;2022-08-19T01:23:43;7.93;;;4.63;;
45792;SDS011;31495;42.740;22.908;2022-08-19T01:24:44;5.88;;;4.10;;
45792;SDS011;31495;42.740;22.908;2022-08-19T01:25:50;6.65;;;4.22;;
45792;SDS011;31495;42.740;22.908;2022-08-19T01:26:50;7.40;;;4.55;;
45792;SDS011;31495;42.740;22.908;2022-08-19T01:27:50;6.00;;;4.20;;
45792;SDS011;31495;42.740;22.908;2022-08-19T01:28:51;7.53;;;4.90;;
45792;SDS011;31495;42.740;22.908;2022-08-19T01:29:52;6.00;;;4.32;;
45792;SDS011;31495;42.740;22.908;2022-08-19T01:30:52;10.63;;;4.43;;
45792;SDS011;31495;42.740;22.908;2022-08-19T01:31:53;5.65;;;4.82;;
45792;SDS011;31495;42.740;22.908;2022-08-19T01:32:53;7.22;;;4.78;;
45792;SDS011;31495;42.740;22.908;2022-08-19T01:33:55;5.97;;;4.38;;
45792;SDS011;31495;42.740;22.908;2022-08-19T01:34:55;6.05;;;4.43;;
45792;SDS011;31495;42.740;22.908;2022-08-19T01:36:02;9.05;;;4.63;;
45792;SDS011;31495;42.740;22.908;2022-08-19T01:37:14;6.00;;;4.28;;
45792;SDS011;31495;42.740;22.908;2022-08-19T01:38:21;5.10;;;4.25;;
45792;SDS011;31495;42.740;22.908;2022-08-19T01:39:25;5.47;;;4.55;;
45792;SDS011;31495;42.740;22.908;2022-08-19T01:40:27;6.75;;;4.85;;
45792;SDS011;31495;42.740;22.908;2022-08-19T01:41:31;10.35;;;4.57;;
45792;SDS011;31495;42.740;22.908;2022-08-19T01:42:30;8.20;;;4.50;;
45792;SDS011;31495;42.740;22.908;2022-08-19T01:43:31;6.10;;;3.90;;
45792;SDS011;31495;42.740;22.908;2022-08-19T01:44:32;5.55;;;4.60;;
45792;SDS011;31495;42.740;22.908;2022-08-19T01:45:32;4.55;;;3.88;;
45792;SDS011;31495;42.740;22.908;2022-08-19T01:46:33;5.32;;;4.43;;
45792;SDS011;31495;42.740;22.908;2022-08-19T01:47:34;4.15;;;3.75;;
45792;SDS011;31495;42.740;22.908;2022-08-19T01:49:36;6.35;;;3.88;;
45792;SDS011;31495;42.740;22.908;2022-08-19T01:50:36;6.78;;;4.13;;
45792;SDS011;31495;42.740;22.908;2022-08-19T01:51:36;6.40;;;4.43;;
45792;SDS011;31495;42.740;22.908;2022-08-19T01:52:40;5.05;;;4.10;;
45792;SDS011;31495;42.740;22.908;2022-08-19T01:53:41;5.63;;;4.15;;
45792;SDS011;31495;42.740;22.908;2022-08-19T01:54:41;8.23;;;4.50;;
45792;SDS011;31495;42.740;22.908;2022-08-19T01:55:41;6.53;;;4.35;;
45792;SDS011;31495;42.740;22.908;2022-08-19T01:56:41;5.78;;;4.03;;
45792;SDS011;31495;42.740;22.908;2022-08-19T01:57:42;5.20;;;3.65;;
45792;SDS011;31495;42.740;22.908;2022-08-19T01:58:47;9.23;;;4.10;;
45792;SDS011;31495;42.740;22.908;2022-08-19T01:59:50;7.35;;;4.63;;
45792;SDS011;31495;42.740;22.908;2022-08-19T02:00:50;6.10;;;4.25;;
45792;SDS011;31495;42.740;22.908;2022-08-19T02:01:50;5.30;;;4.53;;
45792;SDS011;31495;42.740;22.908;2022-08-19T02:02:49;5.75;;;4.57;;
45792;SDS011;31495;42.740;22.908;2022-08-19T02:03:49;7.10;;;4.75;;
45792;SDS011;31495;42.740;22.908;2022-08-19T02:04:49;5.22;;;3.75;;
45792;SDS011;31495;42.740;22.908;2022-08-19T02:05:53;6.03;;;4.60;;
45792;SDS011;31495;42.740;22.908;2022-08-19T02:06:54;5.45;;;4.13;;
45792;SDS011;31495;42.740;22.908;2022-08-19T02:07:55;7.25;;;4.40;;
45792;SDS011;31495;42.740;22.908;2022-08-19T02:08:56;6.93;;;4.30;;
45792;SDS011;31495;42.740;22.908;2022-08-19T02:09:56;5.38;;;4.22;;
45792;SDS011;31495;42.740;22.908;2022-08-19T02:10:56;6.85;;;4.45;;
45792;SDS011;31495;42.740;22.908;2022-08-19T02:11:55;5.40;;;4.28;;
45792;SDS011;31495;42.740;22.908;2022-08-19T02:12:55;8.00;;;4.20;;
45792;SDS011;31495;42.740;22.908;2022-08-19T02:13:54;5.85;;;4.15;;
45792;SDS011;31495;42.740;22.908;2022-08-19T02:14:54;6.35;;;4.53;;
45792;SDS011;31495;42.740;22.908;2022-08-19T02:15:54;6.68;;;4.53;;
45792;SDS011;31495;42.740;22.908;2022-08-19T02:16:53;6.35;;;4.38;;
45792;SDS011;31495;42.740;22.908;2022-08-19T02:17:52;6.43;;;4.70;;
45792;SDS011;31495;42.740;22.908;2022-08-19T02:18:51;5.63;;;4.55;;
45792;SDS011;31495;42.740;22.908;2022-08-19T02:19:51;9.35;;;4.25;;
45792;SDS011;31495;42.740;22.908;2022-08-19T02:20:50;5.55;;;4.30;;
45792;SDS011;31495;42.740;22.908;2022-08-19T02:21:50;4.88;;;4.15;;
45792;SDS011;31495;42.740;22.908;2022-08-19T02:22:49;6.43;;;4.07;;
45792;SDS011;31495;42.740;22.908;2022-08-19T02:23:49;7.72;;;4.20;;
45792;SDS011;31495;42.740;22.908;2022-08-19T02:24:49;5.13;;;4.05;;
45792;SDS011;31495;42.740;22.908;2022-08-19T02:25:50;7.38;;;4.13;;
45792;SDS011;31495;42.740;22.908;2022-08-19T02:26:51;6.15;;;4.57;;
45792;SDS011;31495;42.740;22.908;2022-08-19T02:27:51;5.80;;;4.68;;
45792;SDS011;31495;42.740;22.908;2022-08-19T02:28:50;6.75;;;4.20;;
45792;SDS011;31495;42.740;22.908;2022-08-19T02:29:50;5.82;;;4.30;;
45792;SDS011;31495;42.740;22.908;2022-08-19T02:30:50;8.85;;;4.82;;
45792;SDS011;31495;42.740;22.908;2022-08-19T02:31:49;7.18;;;4.20;;
45792;SDS011;31495;42.740;22.908;2022-08-19T02:32:50;4.85;;;4.32;;
45792;SDS011;31495;42.740;22.908;2022-08-19T02:33:50;7.50;;;4.05;;
45792;SDS011;31495;42.740;22.908;2022-08-19T02:34:51;6.95;;;4.70;;
45792;SDS011;31495;42.740;22.908;2022-08-19T02:35:50;7.35;;;5.07;;
45792;SDS011;31495;42.740;22.908;2022-08-19T02:36:50;5.45;;;4.03;;
45792;SDS011;31495;42.740;22.908;2022-08-19T02:37:51;6.07;;;4.43;;
45792;SDS011;31495;42.740;22.908;2022-08-19T02:39:09;5.50;;;4.03;;
45792;SDS011;31495;42.740;22.908;2022-08-19T02:40:09;5.35;;;4.47;;
45792;SDS011;31495;42.740;22.908;2022-08-19T02:41:29;6.50;;;4.80;;
45792;SDS011;31495;42.740;22.908;2022-08-19T02:42:31;6.63;;;5.22;;
45792;SDS011;31495;42.740;22.908;2022-08-19T02:43:32;7.03;;;4.28;;
45792;SDS011;31495;42.740;22.908;2022-08-19T02:44:35;6.18;;;4.75;;
45792;SDS011;31495;42.740;22.908;2022-08-19T02:45:35;8.75;;;4.72;;
45792;SDS011;31495;42.740;22.908;2022-08-19T02:46:36;9.60;;;5.40;;
45792;SDS011;31495;42.740;22.908;2022-08-19T02:47:35;9.20;;;4.55;;
45792;SDS011;31495;42.740;22.908;2022-08-19T02:48:34;7.25;;;4.75;;
45792;SDS011;31495;42.740;22.908;2022-08-19T02:49:34;6.72;;;4.88;;
45792;SDS011;31495;42.740;22.908;2022-08-19T02:50:36;7.68;;;6.05;;
45792;SDS011;31495;42.740;22.908;2022-08-19T02:51:38;7.40;;;5.00;;
45792;SDS011;31495;42.740;22.908;2022-08-19T02:52:40;7.45;;;4.70;;
45792;SDS011;31495;42.740;22.908;2022-08-19T02:53:39;8.15;;;5.50;;
45792;SDS011;31495;42.740;22.908;2022-08-19T02:54:39;6.53;;;5.07;;
45792;SDS011;31495;42.740;22.908;2022-08-19T02:55:47;7.22;;;5.30;;
45792;SDS011;31495;42.740;22.908;2022-08-19T02:56:47;8.65;;;4.85;;
45792;SDS011;31495;42.740;22.908;2022-08-19T02:57:47;10.63;;;4.18;;
45792;SDS011;31495;42.740;22.908;2022-08-19T02:58:47;5.43;;;4.38;;
45792;SDS011;31495;42.740;22.908;2022-08-19T02:59:47;7.13;;;4.50;;
45792;SDS011;31495;42.740;22.908;2022-08-19T03:00:48;4.68;;;3.95;;
45792;SDS011;31495;42.740;22.908;2022-08-19T03:01:49;4.63;;;3.78;;
45792;SDS011;31495;42.740;22.908;2022-08-19T03:02:48;6.45;;;4.45;;
45792;SDS011;31495;42.740;22.908;2022-08-19T03:03:48;7.93;;;4.53;;
45792;SDS011;31495;42.740;22.908;2022-08-19T03:04:47;6.95;;;4.63;;
45792;SDS011;31495;42.740;22.908;2022-08-19T03:05:47;4.63;;;3.95;;
45792;SDS011;31495;42.740;22.908;2022-08-19T03:06:47;6.05;;;4.57;;
45792;SDS011;31495;42.740;22.908;2022-08-19T03:07:46;7.07;;;4.43;;
45792;SDS011;31495;42.740;22.908;2022-08-19T03:08:46;4.95;;;4.15;;
45792;SDS011;31495;42.740;22.908;2022-08-19T03:09:47;5.82;;;4.20;;
45792;SDS011;31495;42.740;22.908;2022-08-19T03:10:47;8.30;;;4.70;;
45792;SDS011;31495;42.740;22.908;2022-08-19T03:11:47;7.75;;;4.82;;
45792;SDS011;31495;42.740;22.908;2022-08-19T03:12:46;6.95;;;4.60;;
45792;SDS011;31495;42.740;22.908;2022-08-19T03:13:46;10.88;;;5.63;;
45792;SDS011;31495;42.740;22.908;2022-08-19T03:14:48;7.03;;;4.85;;
45792;SDS011;31495;42.740;22.908;2022-08-19T03:15:48;6.43;;;5.05;;
45792;SDS011;31495;42.740;22.908;2022-08-19T03:16:48;6.45;;;5.28;;
45792;SDS011;31495;42.740;22.908;2022-08-19T03:17:50;9.25;;;5.38;;
45792;SDS011;31495;42.740;22.908;2022-08-19T03:18:49;9.23;;;4.78;;
45792;SDS011;31495;42.740;22.908;2022-08-19T03:19:50;5.70;;;4.75;;
45792;SDS011;31495;42.740;22.908;2022-08-19T03:20:50;9.40;;;4.95;;
45792;SDS011;31495;42.740;22.908;2022-08-19T03:21:54;7.60;;;5.10;;
45792;SDS011;31495;42.740;22.908;2022-08-19T03:22:54;8.80;;;5.00;;
45792;SDS011;31495;42.740;22.908;2022-08-19T03:23:54;6.53;;;4.75;;
45792;SDS011;31495;42.740;22.908;2022-08-19T03:24:55;9.85;;;5.18;;
45792;SDS011;31495;42.740;22.908;2022-08-19T03:25:54;11.00;;;4.15;;
45792;SDS011;31495;42.740;22.908;2022-08-19T03:26:54;9.00;;;4.88;;
45792;SDS011;31495;42.740;22.908;2022-08-19T03:27:57;9.82;;;5.05;;
45792;SDS011;31495;42.740;22.908;2022-08-19T03:28:57;5.82;;;4.82;;
45792;SDS011;31495;42.740;22.908;2022-08-19T03:29:57;6.22;;;5.13;;
45792;SDS011;31495;42.740;22.908;2022-08-19T03:30:57;6.35;;;4.95;;
45792;SDS011;31495;42.740;22.908;2022-08-19T03:31:59;6.07;;;4.60;;
45792;SDS011;31495;42.740;22.908;2022-08-19T03:33:00;6.95;;;4.63;;
45792;SDS011;31495;42.740;22.908;2022-08-19T03:34:01;8.73;;;5.55;;
45792;SDS011;31495;42.740;22.908;2022-08-19T03:35:00;9.32;;;5.13;;
45792;SDS011;31495;42.740;22.908;2022-08-19T03:36:04;13.55;;;5.15;;
45792;SDS011;31495;42.740;22.908;2022-08-19T03:37:07;6.82;;;4.57;;
45792;SDS011;31495;42.740;22.908;2022-08-19T03:38:08;6.90;;;4.70;;
45792;SDS011;31495;42.740;22.908;2022-08-19T03:39:09;6.40;;;5.20;;
45792;SDS011;31495;42.740;22.908;2022-08-19T03:40:09;8.43;;;4.97;;
45792;SDS011;31495;42.740;22.908;2022-08-19T03:41:12;6.43;;;4.38;;
45792;SDS011;31495;42.740;22.908;2022-08-19T03:42:14;6.18;;;4.43;;
45792;SDS011;31495;42.740;22.908;2022-08-19T03:44:19;7.32;;;4.85;;
45792;SDS011;31495;42.740;22.908;2022-08-19T03:45:19;5.20;;;4.70;;
45792;SDS011;31495;42.740;22.908;2022-08-19T03:46:20;7.10;;;4.93;;
45792;SDS011;31495;42.740;22.908;2022-08-19T03:47:23;6.13;;;4.90;;
45792;SDS011;31495;42.740;22.908;2022-08-19T03:48:23;6.82;;;4.40;;
45792;SDS011;31495;42.740;22.908;2022-08-19T03:49:23;8.13;;;4.43;;
45792;SDS011;31495;42.740;22.908;2022-08-19T03:50:25;8.05;;;4.88;;
45792;SDS011;31495;42.740;22.908;2022-08-19T03:51:32;6.72;;;4.88;;
45792;SDS011;31495;42.740;22.908;2022-08-19T03:52:34;5.60;;;4.03;;
45792;SDS011;31495;42.740;22.908;2022-08-19T03:53:35;6.28;;;4.65;;
45792;SDS011;31495;42.740;22.908;2022-08-19T03:54:35;5.95;;;4.85;;
45792;SDS011;31495;42.740;22.908;2022-08-19T03:55:40;4.88;;;4.20;;
45792;SDS011;31495;42.740;22.908;2022-08-19T03:56:41;6.70;;;4.47;;
45792;SDS011;31495;42.740;22.908;2022-08-19T03:57:41;7.82;;;5.68;;
45792;SDS011;31495;42.740;22.908;2022-08-19T03:58:41;6.60;;;4.55;;
45792;SDS011;31495;42.740;22.908;2022-08-19T03:59:41;6.07;;;4.95;;
45792;SDS011;31495;42.740;22.908;2022-08-19T04:00:42;10.15;;;4.63;;
45792;SDS011;31495;42.740;22.908;2022-08-19T04:01:42;5.63;;;4.40;;
45792;SDS011;31495;42.740;22.908;2022-08-19T04:02:41;10.30;;;4.72;;
45792;SDS011;31495;42.740;22.908;2022-08-19T04:03:42;10.77;;;5.20;;
45792;SDS011;31495;42.740;22.908;2022-08-19T04:04:42;11.27;;;4.97;;
45792;SDS011;31495;42.740;22.908;2022-08-19T04:05:42;5.63;;;5.07;;
45792;SDS011;31495;42.740;22.908;2022-08-19T04:06:42;5.75;;;4.40;;
45792;SDS011;31495;42.740;22.908;2022-08-19T04:07:42;6.65;;;4.75;;
45792;SDS011;31495;42.740;22.908;2022-08-19T04:08:42;8.30;;;4.78;;
45792;SDS011;31495;42.740;22.908;2022-08-19T04:09:43;8.93;;;5.70;;
45792;SDS011;31495;42.740;22.908;2022-08-19T04:10:42;7.93;;;6.18;;
45792;SDS011;31495;42.740;22.908;2022-08-19T04:11:44;5.80;;;5.00;;
45792;SDS011;31495;42.740;22.908;2022-08-19T04:12:47;7.15;;;4.93;;
45792;SDS011;31495;42.740;22.908;2022-08-19T04:13:46;6.88;;;5.60;;
45792;SDS011;31495;42.740;22.908;2022-08-19T04:14:47;6.60;;;4.88;;
45792;SDS011;31495;42.740;22.908;2022-08-19T04:15:46;7.25;;;5.18;;
45792;SDS011;31495;42.740;22.908;2022-08-19T04:16:46;7.05;;;4.35;;
45792;SDS011;31495;42.740;22.908;2022-08-19T04:17:47;9.10;;;5.45;;
45792;SDS011;31495;42.740;22.908;2022-08-19T04:18:47;11.45;;;6.22;;
45792;SDS011;31495;42.740;22.908;2022-08-19T04:19:47;6.13;;;4.90;;
45792;SDS011;31495;42.740;22.908;2022-08-19T04:20:46;7.07;;;5.10;;
45792;SDS011;31495;42.740;22.908;2022-08-19T04:21:48;10.65;;;5.38;;
45792;SDS011;31495;42.740;22.908;2022-08-19T04:22:50;8.40;;;5.60;;
45792;SDS011;31495;42.740;22.908;2022-08-19T04:23:50;6.50;;;5.38;;
45792;SDS011;31495;42.740;22.908;2022-08-19T04:24:50;7.05;;;5.05;;
45792;SDS011;31495;42.740;22.908;2022-08-19T04:25:49;8.30;;;5.32;;
45792;SDS011;31495;42.740;22.908;2022-08-19T04:26:49;10.13;;;5.57;;
45792;SDS011;31495;42.740;22.908;2022-08-19T04:27:49;7.57;;;5.60;;
45792;SDS011;31495;42.740;22.908;2022-08-19T04:28:49;11.32;;;6.63;;
45792;SDS011;31495;42.740;22.908;2022-08-19T04:29:50;7.78;;;4.85;;
45792;SDS011;31495;42.740;22.908;2022-08-19T04:30:50;8.02;;;5.30;;
45792;SDS011;31495;42.740;22.908;2022-08-19T04:31:53;8.95;;;5.55;;
45792;SDS011;31495;42.740;22.908;2022-08-19T04:32:54;7.28;;;5.30;;
45792;SDS011;31495;42.740;22.908;2022-08-19T04:33:58;7.95;;;5.60;;
45792;SDS011;31495;42.740;22.908;2022-08-19T04:34:59;8.70;;;5.70;;
45792;SDS011;31495;42.740;22.908;2022-08-19T04:35:58;6.45;;;5.00;;
45792;SDS011;31495;42.740;22.908;2022-08-19T04:36:58;11.75;;;6.00;;
45792;SDS011;31495;42.740;22.908;2022-08-19T04:37:58;15.00;;;6.05;;
45792;SDS011;31495;42.740;22.908;2022-08-19T04:38:59;8.77;;;6.57;;
45792;SDS011;31495;42.740;22.908;2022-08-19T04:40:05;8.98;;;6.38;;
45792;SDS011;31495;42.740;22.908;2022-08-19T04:41:24;10.77;;;5.88;;
45792;SDS011;31495;42.740;22.908;2022-08-19T04:42:43;13.13;;;5.38;;
45792;SDS011;31495;42.740;22.908;2022-08-19T04:43:44;8.90;;;5.78;;
45792;SDS011;31495;42.740;22.908;2022-08-19T04:44:47;8.68;;;6.15;;
45792;SDS011;31495;42.740;22.908;2022-08-19T04:45:47;10.23;;;5.95;;
45792;SDS011;31495;42.740;22.908;2022-08-19T04:46:47;10.60;;;6.50;;
45792;SDS011;31495;42.740;22.908;2022-08-19T04:47:48;16.98;;;6.72;;
45792;SDS011;31495;42.740;22.908;2022-08-19T04:48:47;11.98;;;7.28;;
45792;SDS011;31495;42.740;22.908;2022-08-19T04:49:47;10.60;;;6.80;;
45792;SDS011;31495;42.740;22.908;2022-08-19T04:50:47;19.10;;;7.75;;
45792;SDS011;31495;42.740;22.908;2022-08-19T04:51:48;8.82;;;5.75;;
45792;SDS011;31495;42.740;22.908;2022-08-19T04:53:50;9.65;;;5.95;;
45792;SDS011;31495;42.740;22.908;2022-08-19T04:54:51;13.88;;;5.70;;
45792;SDS011;31495;42.740;22.908;2022-08-19T04:55:50;17.42;;;6.30;;
45792;SDS011;31495;42.740;22.908;2022-08-19T04:56:54;13.00;;;6.22;;
45792;SDS011;31495;42.740;22.908;2022-08-19T04:57:54;10.73;;;6.25;;
45792;SDS011;31495;42.740;22.908;2022-08-19T04:58:54;8.73;;;5.65;;
45792;SDS011;31495;42.740;22.908;2022-08-19T04:59:54;11.52;;;5.85;;
45792;SDS011;31495;42.740;22.908;2022-08-19T05:00:55;9.90;;;5.97;;
45792;SDS011;31495;42.740;22.908;2022-08-19T05:01:54;7.82;;;4.97;;
45792;SDS011;31495;42.740;22.908;2022-08-19T05:02:54;8.85;;;5.63;;
45792;SDS011;31495;42.740;22.908;2022-08-19T05:03:54;7.38;;;5.90;;
45792;SDS011;31495;42.740;22.908;2022-08-19T05:06:06;8.93;;;5.57;;
45792;SDS011;31495;42.740;22.908;2022-08-19T05:07:07;9.77;;;5.65;;
45792;SDS011;31495;42.740;22.908;2022-08-19T05:08:08;10.25;;;6.45;;
45792;SDS011;31495;42.740;22.908;2022-08-19T05:09:08;7.00;;;5.35;;
45792;SDS011;31495;42.740;22.908;2022-08-19T05:10:08;11.05;;;6.00;;
45792;SDS011;31495;42.740;22.908;2022-08-19T05:11:12;9.43;;;5.93;;
45792;SDS011;31495;42.740;22.908;2022-08-19T05:12:14;10.63;;;5.95;;
45792;SDS011;31495;42.740;22.908;2022-08-19T05:13:15;8.38;;;5.75;;
45792;SDS011;31495;42.740;22.908;2022-08-19T05:15:15;8.00;;;5.80;;
45792;SDS011;31495;42.740;22.908;2022-08-19T05:16:17;7.25;;;5.40;;
45792;SDS011;31495;42.740;22.908;2022-08-19T05:17:20;8.23;;;6.32;;
45792;SDS011;31495;42.740;22.908;2022-08-19T05:18:19;14.60;;;6.13;;
45792;SDS011;31495;42.740;22.908;2022-08-19T05:19:37;9.43;;;5.78;;
45792;SDS011;31495;42.740;22.908;2022-08-19T05:20:56;11.90;;;5.60;;
45792;SDS011;31495;42.740;22.908;2022-08-19T05:22:14;10.07;;;5.75;;
45792;SDS011;31495;42.740;22.908;2022-08-19T05:23:33;13.73;;;6.20;;
45792;SDS011;31495;42.740;22.908;2022-08-19T05:24:33;8.27;;;5.93;;
45792;SDS011;31495;42.740;22.908;2022-08-19T05:25:33;13.90;;;6.32;;
45792;SDS011;31495;42.740;22.908;2022-08-19T05:26:32;9.18;;;6.28;;
45792;SDS011;31495;42.740;22.908;2022-08-19T05:27:32;9.35;;;5.97;;
45792;SDS011;31495;42.740;22.908;2022-08-19T05:28:32;14.15;;;5.60;;
45792;SDS011;31495;42.740;22.908;2022-08-19T05:29:32;8.27;;;5.63;;
45792;SDS011;31495;42.740;22.908;2022-08-19T05:30:33;9.15;;;6.53;;
45792;SDS011;31495;42.740;22.908;2022-08-19T05:31:33;10.10;;;6.03;;
45792;SDS011;31495;42.740;22.908;2022-08-19T05:32:34;9.27;;;5.10;;
45792;SDS011;31495;42.740;22.908;2022-08-19T05:33:34;12.65;;;6.53;;
45792;SDS011;31495;42.740;22.908;2022-08-19T05:34:34;8.98;;;6.18;;
45792;SDS011;31495;42.740;22.908;2022-08-19T05:35:36;9.32;;;5.78;;
45792;SDS011;31495;42.740;22.908;2022-08-19T05:36:38;7.72;;;5.60;;
45792;SDS011;31495;42.740;22.908;2022-08-19T05:37:39;7.57;;;5.28;;
45792;SDS011;31495;42.740;22.908;2022-08-19T05:38:39;12.32;;;6.10;;
45792;SDS011;31495;42.740;22.908;2022-08-19T05:39:39;8.20;;;5.82;;
45792;SDS011;31495;42.740;22.908;2022-08-19T05:40:39;11.32;;;5.88;;
45792;SDS011;31495;42.740;22.908;2022-08-19T05:41:43;10.25;;;5.50;;
45792;SDS011;31495;42.740;22.908;2022-08-19T05:42:43;11.90;;;6.22;;
45792;SDS011;31495;42.740;22.908;2022-08-19T05:43:42;12.35;;;5.50;;
45792;SDS011;31495;42.740;22.908;2022-08-19T05:44:43;9.98;;;5.97;;
45792;SDS011;31495;42.740;22.908;2022-08-19T05:45:44;9.98;;;5.35;;
45792;SDS011;31495;42.740;22.908;2022-08-19T05:46:44;7.38;;;5.45;;
45792;SDS011;31495;42.740;22.908;2022-08-19T05:47:46;7.75;;;5.72;;
45792;SDS011;31495;42.740;22.908;2022-08-19T05:48:45;7.80;;;5.70;;
45792;SDS011;31495;42.740;22.908;2022-08-19T05:49:45;12.73;;;5.60;;
45792;SDS011;31495;42.740;22.908;2022-08-19T05:50:44;9.38;;;5.28;;
45792;SDS011;31495;42.740;22.908;2022-08-19T05:51:44;12.82;;;6.20;;
45792;SDS011;31495;42.740;22.908;2022-08-19T05:52:44;7.22;;;5.13;;
45792;SDS011;31495;42.740;22.908;2022-08-19T05:53:44;8.00;;;5.18;;
45792;SDS011;31495;42.740;22.908;2022-08-19T05:54:44;6.47;;;4.50;;
45792;SDS011;31495;42.740;22.908;2022-08-19T05:55:46;8.50;;;5.10;;
45792;SDS011;31495;42.740;22.908;2022-08-19T05:56:46;8.23;;;4.50;;
45792;SDS011;31495;42.740;22.908;2022-08-19T05:57:46;6.50;;;5.43;;
45792;SDS011;31495;42.740;22.908;2022-08-19T05:58:46;8.43;;;5.32;;
45792;SDS011;31495;42.740;22.908;2022-08-19T05:59:45;8.82;;;5.30;;
45792;SDS011;31495;42.740;22.908;2022-08-19T06:00:47;7.63;;;5.53;;
45792;SDS011;31495;42.740;22.908;2022-08-19T06:01:47;10.23;;;5.20;;
45792;SDS011;31495;42.740;22.908;2022-08-19T06:02:49;7.13;;;4.90;;
45792;SDS011;31495;42.740;22.908;2022-08-19T06:03:50;7.82;;;5.32;;
45792;SDS011;31495;42.740;22.908;2022-08-19T06:04:50;5.45;;;4.38;;
45792;SDS011;31495;42.740;22.908;2022-08-19T06:05:50;10.15;;;5.55;;
45792;SDS011;31495;42.740;22.908;2022-08-19T06:06:51;6.03;;;5.32;;
45792;SDS011;31495;42.740;22.908;2022-08-19T06:07:51;7.95;;;4.88;;
45792;SDS011;31495;42.740;22.908;2022-08-19T06:08:51;11.25;;;5.43;;